Time;durP1;ratioP1;P1;durP2;ratioP2;P2;SDS_P1;SDS_P2;PMS_P1;PMS_P2;Temp;Humidity;BMP_temperature;BMP_pressure;BME280_temperature;BME280_humidity;BME280_pressure;Samples;Min_cycle;Max_cycle;Signal;HPM_P1;HPM_P2
2023/08/26 00:00:07;;;;;;;5.18;3.85;;;;;;;;;;463069;28;1375;-74
2023/08/26 00:00:23;;;;;;;5.63;3.70;;;;;;;;;;463918;28;1125;-73
2023/08/26 00:00:38;;;;;;;5.30;3.72;;;;;;;;;;462698;28;1025;-73
2023/08/26 00:00:53;;;;;;;5.37;3.77;;;;;;;;;;460805;28;1059;-73
2023/08/26 00:01:09;;;;;;;7.00;3.90;;;;;;;;;;460973;29;903;-73
2023/08/26 00:01:24;;;;;;;6.43;3.85;;;;;;;;;;459814;29;1351;-73
2023/08/26 00:01:39;;;;;;;5.93;3.93;;;;;;;;;;458644;29;1379;-73
2023/08/26 00:01:55;;;;;;;6.57;3.90;;;;;;;;;;459663;29;1121;-73
2023/08/26 00:02:10;;;;;;;7.10;3.83;;;;;;;;;;459604;29;1114;-72
2023/08/26 00:02:26;;;;;;;6.53;3.90;;;;;;;;;;460079;28;847;-73
2023/08/26 00:02:41;;;;;;;6.20;3.88;;;;;;;;;;462273;28;1168;-73
2023/08/26 00:02:57;;;;;;;6.27;3.90;;;;;;;;;;461235;29;1131;-73
2023/08/26 00:03:13;;;;;;;6.23;3.83;;;;;;;;;;460859;29;982;-73
2023/08/26 00:03:29;;;;;;;5.70;3.80;;;;;;;;;;459878;28;1255;-72
2023/08/26 00:03:44;;;;;;;5.97;3.90;;;;;;;;;;461330;28;1200;-73
2023/08/26 00:03:59;;;;;;;6.75;4.00;;;;;;;;;;461613;28;1146;-73
2023/08/26 00:04:15;;;;;;;5.90;3.83;;;;;;;;;;461612;28;1117;-73
2023/08/26 00:04:32;;;;;;;5.15;3.90;;;;;;;;;;461192;28;903;-73
2023/08/26 00:04:48;;;;;;;4.97;3.97;;;;;;;;;;461007;28;1105;-73
2023/08/26 00:05:03;;;;;;;5.00;3.70;;;;;;;;;;461954;28;1177;-73
2023/08/26 00:05:18;;;;;;;4.63;3.63;;;;;;;;;;461582;28;1361;-72
2023/08/26 00:05:34;;;;;;;5.50;3.80;;;;;;;;;;461599;28;1105;-72
2023/08/26 00:05:50;;;;;;;6.60;3.90;;;;;;;;;;461847;28;1158;-73
2023/08/26 00:06:05;;;;;;;5.90;3.80;;;;;;;;;;460803;28;966;-73
2023/08/26 00:06:21;;;;;;;5.47;3.60;;;;;;;;;;461885;28;998;-73
2023/08/26 00:06:36;;;;;;;6.00;3.60;;;;;;;;;;461659;28;1193;-72
2023/08/26 00:06:51;;;;;;;5.07;3.63;;;;;;;;;;461714;28;1218;-72
2023/08/26 00:07:06;;;;;;;4.47;3.50;;;;;;;;;;459906;28;923;-73
2023/08/26 00:07:23;;;;;;;4.87;3.47;;;;;;;;;;461723;28;1302;-73
2023/08/26 00:07:38;;;;;;;5.00;3.60;;;;;;;;;;461627;28;1265;-73
2023/08/26 00:07:54;;;;;;;5.00;3.57;;;;;;;;;;460492;29;1225;-73
2023/08/26 00:08:09;;;;;;;5.00;3.60;;;;;;;;;;461714;29;1196;-73
2023/08/26 00:08:25;;;;;;;4.88;3.53;;;;;;;;;;461015;29;1375;-73
2023/08/26 00:08:40;;;;;;;5.30;3.60;;;;;;;;;;457328;29;1226;-73
2023/08/26 00:08:55;;;;;;;5.77;3.70;;;;;;;;;;459303;29;1232;-73
2023/08/26 00:09:11;;;;;;;5.13;3.50;;;;;;;;;;459238;29;1011;-73
2023/08/26 00:09:26;;;;;;;4.97;3.50;;;;;;;;;;461076;29;975;-73
2023/08/26 00:09:42;;;;;;;5.75;3.50;;;;;;;;;;459031;29;1119;-72
2023/08/26 00:09:57;;;;;;;5.43;3.40;;;;;;;;;;460207;29;1139;-73
2023/08/26 00:10:12;;;;;;;6.03;3.50;;;;;;;;;;462377;28;1153;-73
2023/08/26 00:10:28;;;;;;;6.53;3.55;;;;;;;;;;461398;28;1195;-73
2023/08/26 00:10:43;;;;;;;5.73;3.50;;;;;;;;;;462462;28;1066;-73
2023/08/26 00:10:58;;;;;;;4.60;3.17;;;;;;;;;;459722;29;1292;-73
2023/08/26 00:11:14;;;;;;;5.10;3.05;;;;;;;;;;460049;29;1122;-72
2023/08/26 00:11:29;;;;;;;6.20;3.10;;;;;;;;;;459686;29;1123;-73
2023/08/26 00:11:45;;;;;;;5.07;3.20;;;;;;;;;;460796;29;1161;-72
2023/08/26 00:12:00;;;;;;;4.80;3.30;;;;;;;;;;460276;29;1054;-72
2023/08/26 00:12:15;;;;;;;4.77;3.03;;;;;;;;;;458958;29;1172;-73
2023/08/26 00:12:31;;;;;;;4.15;3.00;;;;;;;;;;461744;29;1260;-72
2023/08/26 00:12:46;;;;;;;5.03;3.17;;;;;;;;;;458548;29;1125;-72
2023/08/26 00:13:01;;;;;;;4.77;3.00;;;;;;;;;;460533;29;1081;-72
2023/08/26 00:13:17;;;;;;;4.35;3.15;;;;;;;;;;460819;28;942;-73
2023/08/26 00:13:32;;;;;;;4.80;3.23;;;;;;;;;;461141;28;1988;-73
2023/08/26 00:13:47;;;;;;;4.17;2.93;;;;;;;;;;459609;29;1310;-73
2023/08/26 00:14:03;;;;;;;3.80;2.90;;;;;;;;;;458406;29;1309;-73
2023/08/26 00:14:19;;;;;;;4.25;2.85;;;;;;;;;;457344;29;1012;-73
2023/08/26 00:14:34;;;;;;;4.83;2.90;;;;;;;;;;457584;29;1209;-72
2023/08/26 00:14:50;;;;;;;4.50;2.97;;;;;;;;;;459776;29;1412;-72
2023/08/26 00:15:05;;;;;;;5.60;2.90;;;;;;;;;;459875;29;1117;-73
2023/08/26 00:15:22;;;;;;;6.40;2.95;;;;;;;;;;459298;29;1287;-73
2023/08/26 00:15:37;;;;;;;4.78;2.78;;;;;;;;;;459073;29;1324;-73
2023/08/26 00:15:53;;;;;;;4.35;2.50;;;;;;;;;;460664;28;1200;-73
2023/08/26 00:16:08;;;;;;;4.37;2.57;;;;;;;;;;462323;28;1086;-72
2023/08/26 00:16:23;;;;;;;4.93;2.83;;;;;;;;;;461558;28;1218;-73
2023/08/26 00:16:39;;;;;;;5.07;2.85;;;;;;;;;;459037;29;1159;-73
2023/08/26 00:16:54;;;;;;;5.00;2.70;;;;;;;;;;457150;29;1320;-73
2023/08/26 00:17:09;;;;;;;5.37;2.67;;;;;;;;;;458100;29;1153;-73
2023/08/26 00:17:25;;;;;;;5.27;2.60;;;;;;;;;;457904;29;1095;-73
2023/08/26 00:17:40;;;;;;;5.45;2.60;;;;;;;;;;457323;29;942;-72
2023/08/26 00:17:55;;;;;;;5.07;2.50;;;;;;;;;;457878;29;1206;-73
2023/08/26 00:18:11;;;;;;;4.33;2.43;;;;;;;;;;456009;29;1085;-73
2023/08/26 00:18:26;;;;;;;4.55;2.50;;;;;;;;;;455523;29;992;-72
2023/08/26 00:18:42;;;;;;;4.40;2.35;;;;;;;;;;455265;29;1361;-73
2023/08/26 00:18:59;;;;;;;4.43;2.37;;;;;;;;;;456791;29;1131;-73
2023/08/26 00:19:16;;;;;;;5.00;2.47;;;;;;;;;;456056;29;1175;-73
2023/08/26 00:19:31;;;;;;;4.30;2.58;;;;;;;;;;456398;29;1426;-73
2023/08/26 00:19:50;;;;;;;4.13;2.40;;;;;;;;;;456962;29;1097;-72
2023/08/26 00:20:08;;;;;;;2.85;2.30;;;;;;;;;;459633;29;1295;-73
2023/08/26 00:20:23;;;;;;;3.20;2.47;;;;;;;;;;460280;29;991;-73
2023/08/26 00:20:40;;;;;;;4.10;2.53;;;;;;;;;;461610;28;1174;-72
2023/08/26 00:20:57;;;;;;;3.83;2.40;;;;;;;;;;462405;28;1136;-73
2023/08/26 00:21:14;;;;;;;3.85;2.30;;;;;;;;;;463816;28;927;-73
2023/08/26 00:21:31;;;;;;;5.63;2.53;;;;;;;;;;465003;28;954;-73
2023/08/26 00:21:47;;;;;;;5.18;2.70;;;;;;;;;;463547;28;1377;-73
2023/08/26 00:22:05;;;;;;;3.60;2.55;;;;;;;;;;462684;28;977;-72
2023/08/26 00:22:20;;;;;;;4.38;2.45;;;;;;;;;;462847;28;1136;-73
2023/08/26 00:22:37;;;;;;;4.23;2.47;;;;;;;;;;461285;28;1216;-72
2023/08/26 00:22:52;;;;;;;4.97;2.38;;;;;;;;;;461877;28;1378;-73
2023/08/26 00:23:08;;;;;;;4.70;2.40;;;;;;;;;;461036;28;1381;-72
2023/08/26 00:23:23;;;;;;;3.67;2.42;;;;;;;;;;461874;28;971;-73
2023/08/26 00:23:39;;;;;;;4.37;2.40;;;;;;;;;;461317;28;1094;-72
2023/08/26 00:23:55;;;;;;;4.13;2.30;;;;;;;;;;461751;28;1144;-72
2023/08/26 00:24:11;;;;;;;3.70;2.30;;;;;;;;;;460630;28;1269;-72
2023/08/26 00:24:26;;;;;;;3.75;2.40;;;;;;;;;;462372;28;966;-72
2023/08/26 00:24:42;;;;;;;4.40;2.47;;;;;;;;;;461519;28;1228;-72
2023/08/26 00:24:58;;;;;;;4.60;2.35;;;;;;;;;;462210;28;1134;-73
2023/08/26 00:25:13;;;;;;;4.25;2.25;;;;;;;;;;459733;29;1089;-72
2023/08/26 00:25:28;;;;;;;4.00;2.30;;;;;;;;;;458999;29;1296;-72
2023/08/26 00:25:44;;;;;;;5.53;2.43;;;;;;;;;;454484;29;1292;-73
2023/08/26 00:26:01;;;;;;;5.55;2.40;;;;;;;;;;456553;29;1335;-72
2023/08/26 00:26:19;;;;;;;4.35;2.20;;;;;;;;;;456680;29;1127;-73
2023/08/26 00:26:34;;;;;;;4.93;2.30;;;;;;;;;;457459;29;1308;-72
2023/08/26 00:26:50;;;;;;;5.43;2.50;;;;;;;;;;459475;29;917;-72
2023/08/26 00:27:05;;;;;;;4.43;2.30;;;;;;;;;;460188;29;1284;-72
2023/08/26 00:27:20;;;;;;;2.97;2.00;;;;;;;;;;458534;29;974;-72
2023/08/26 00:27:36;;;;;;;2.70;2.03;;;;;;;;;;458611;29;1107;-72
2023/08/26 00:27:51;;;;;;;3.30;2.25;;;;;;;;;;458961;29;1179;-73
2023/08/26 00:28:06;;;;;;;4.37;2.50;;;;;;;;;;457542;29;1256;-73
2023/08/26 00:28:22;;;;;;;4.20;2.40;;;;;;;;;;456246;29;1246;-73
2023/08/26 00:28:37;;;;;;;4.13;2.40;;;;;;;;;;458465;29;1040;-72
2023/08/26 00:28:54;;;;;;;4.10;2.60;;;;;;;;;;458546;29;887;-73
2023/08/26 00:29:09;;;;;;;3.60;2.40;;;;;;;;;;458766;29;1032;-72
2023/08/26 00:29:25;;;;;;;4.40;2.13;;;;;;;;;;459978;28;1142;-72
2023/08/26 00:29:40;;;;;;;5.70;2.40;;;;;;;;;;459920;29;1025;-73
2023/08/26 00:29:55;;;;;;;6.18;2.63;;;;;;;;;;460164;28;1279;-73
2023/08/26 00:30:11;;;;;;;6.95;2.50;;;;;;;;;;461326;28;882;-73
2023/08/26 00:30:27;;;;;;;5.53;2.47;;;;;;;;;;461526;28;1268;-73
2023/08/26 00:30:43;;;;;;;4.40;2.50;;;;;;;;;;461327;28;1239;-72
2023/08/26 00:31:00;;;;;;;4.50;2.35;;;;;;;;;;462057;28;1046;-72
2023/08/26 00:31:15;;;;;;;4.43;2.40;;;;;;;;;;460718;28;983;-73
2023/08/26 00:31:31;;;;;;;5.45;2.55;;;;;;;;;;457919;29;1174;-73
2023/08/26 00:31:46;;;;;;;5.03;2.47;;;;;;;;;;458201;29;1207;-72
2023/08/26 00:32:01;;;;;;;4.67;2.50;;;;;;;;;;459344;29;1159;-71
2023/08/26 00:32:17;;;;;;;5.00;2.50;;;;;;;;;;459738;29;1403;-72
2023/08/26 00:32:33;;;;;;;5.07;2.40;;;;;;;;;;458629;28;1134;-71
2023/08/26 00:32:49;;;;;;;4.00;2.45;;;;;;;;;;460873;29;1279;-72
2023/08/26 00:33:06;;;;;;;3.90;2.40;;;;;;;;;;459360;29;907;-72
2023/08/26 00:33:21;;;;;;;4.68;2.45;;;;;;;;;;458508;29;1360;-73
2023/08/26 00:33:37;;;;;;;5.68;2.60;;;;;;;;;;459107;28;1967;-72
2023/08/26 00:33:52;;;;;;;5.67;2.63;;;;;;;;;;459992;29;1167;-72
2023/08/26 00:34:07;;;;;;;4.77;2.50;;;;;;;;;;458812;29;1026;-73
2023/08/26 00:34:22;;;;;;;4.70;2.50;;;;;;;;;;460825;28;1318;-72
2023/08/26 00:34:38;;;;;;;5.43;2.60;;;;;;;;;;460013;29;1399;-72
2023/08/26 00:34:53;;;;;;;5.17;2.57;;;;;;;;;;459452;29;858;-72
2023/08/26 00:35:13;;;;;;;5.05;2.60;;;;;;;;;;460864;29;991;-72
2023/08/26 00:35:29;;;;;;;5.88;2.60;;;;;;;;;;457235;29;1132;-73
2023/08/26 00:35:44;;;;;;;4.70;2.47;;;;;;;;;;456622;29;1226;-73
2023/08/26 00:36:00;;;;;;;4.00;2.33;;;;;;;;;;456664;29;1213;-72
2023/08/26 00:36:15;;;;;;;3.87;2.37;;;;;;;;;;458509;29;1165;-73
2023/08/26 00:36:31;;;;;;;3.85;2.28;;;;;;;;;;460783;29;918;-73
2023/08/26 00:36:46;;;;;;;4.07;2.30;;;;;;;;;;460438;28;2286;-73
2023/08/26 00:37:02;;;;;;;3.75;2.45;;;;;;;;;;461346;29;951;-74
2023/08/26 00:37:17;;;;;;;4.17;2.43;;;;;;;;;;461270;28;1011;-73
2023/08/26 00:37:32;;;;;;;4.50;2.40;;;;;;;;;;463170;28;994;-73
2023/08/26 00:37:48;;;;;;;4.82;2.42;;;;;;;;;;463128;28;874;-73
2023/08/26 00:38:03;;;;;;;4.93;2.40;;;;;;;;;;461016;28;902;-73
2023/08/26 00:38:20;;;;;;;4.57;2.47;;;;;;;;;;461469;28;1261;-73
2023/08/26 00:38:36;;;;;;;3.88;2.50;;;;;;;;;;462679;28;953;-73
2023/08/26 00:38:51;;;;;;;4.33;2.60;;;;;;;;;;463933;28;997;-73
2023/08/26 00:39:06;;;;;;;3.87;2.50;;;;;;;;;;461800;28;1261;-73
2023/08/26 00:39:22;;;;;;;3.25;2.20;;;;;;;;;;459583;29;1129;-72
2023/08/26 00:39:37;;;;;;;3.90;2.33;;;;;;;;;;460217;29;1112;-72
2023/08/26 00:39:53;;;;;;;3.75;2.38;;;;;;;;;;460726;29;910;-73
2023/08/26 00:40:08;;;;;;;3.80;2.30;;;;;;;;;;460322;29;903;-73
2023/08/26 00:40:24;;;;;;;3.83;2.28;;;;;;;;;;459406;29;1285;-72
2023/08/26 00:40:39;;;;;;;3.93;2.20;;;;;;;;;;461464;29;1012;-73
2023/08/26 00:40:55;;;;;;;4.10;2.40;;;;;;;;;;460314;28;1096;-73
2023/08/26 00:41:10;;;;;;;3.50;2.28;;;;;;;;;;461923;28;1235;-73
2023/08/26 00:41:25;;;;;;;3.83;2.23;;;;;;;;;;460784;28;1237;-73
2023/08/26 00:41:40;;;;;;;4.57;2.47;;;;;;;;;;458255;29;1519;-72
2023/08/26 00:41:56;;;;;;;4.45;2.30;;;;;;;;;;457918;29;1226;-72
2023/08/26 00:42:11;;;;;;;3.87;2.20;;;;;;;;;;458351;29;1001;-73
2023/08/26 00:42:26;;;;;;;3.77;2.40;;;;;;;;;;459072;29;1099;-72
2023/08/26 00:42:42;;;;;;;3.92;2.45;;;;;;;;;;460192;29;1337;-73
2023/08/26 00:42:57;;;;;;;6.13;2.47;;;;;;;;;;460407;29;1247;-72
2023/08/26 00:43:12;;;;;;;6.70;2.50;;;;;;;;;;459036;28;1084;-73
2023/08/26 00:43:28;;;;;;;4.33;2.40;;;;;;;;;;457932;29;879;-73
2023/08/26 00:43:44;;;;;;;4.65;2.47;;;;;;;;;;457369;29;995;-73
2023/08/26 00:43:59;;;;;;;4.47;2.40;;;;;;;;;;454859;29;1060;-73
2023/08/26 00:44:14;;;;;;;3.97;2.27;;;;;;;;;;457270;29;1066;-73
2023/08/26 00:44:30;;;;;;;4.40;2.30;;;;;;;;;;456070;29;1357;-74
2023/08/26 00:44:45;;;;;;;4.47;2.50;;;;;;;;;;456620;29;938;-73
2023/08/26 00:45:00;;;;;;;4.83;2.50;;;;;;;;;;455815;29;1220;-72
2023/08/26 00:45:16;;;;;;;4.43;2.37;;;;;;;;;;458629;29;896;-73
2023/08/26 00:45:31;;;;;;;3.83;2.40;;;;;;;;;;458339;29;966;-72
2023/08/26 00:45:49;;;;;;;3.37;2.30;;;;;;;;;;458025;29;1072;-73
2023/08/26 00:46:04;;;;;;;4.50;2.30;;;;;;;;;;457674;29;1183;-72
2023/08/26 00:46:21;;;;;;;4.50;2.30;;;;;;;;;;459082;29;1199;-73
2023/08/26 00:46:36;;;;;;;3.83;2.38;;;;;;;;;;460332;29;1072;-73
2023/08/26 00:46:52;;;;;;;3.30;2.30;;;;;;;;;;460219;28;1211;-72
2023/08/26 00:47:07;;;;;;;3.25;2.20;;;;;;;;;;459679;29;1187;-73
2023/08/26 00:47:23;;;;;;;4.03;2.20;;;;;;;;;;461154;28;1237;-73
2023/08/26 00:47:39;;;;;;;5.22;2.30;;;;;;;;;;458555;28;1126;-73
2023/08/26 00:47:54;;;;;;;5.10;2.40;;;;;;;;;;458802;29;1079;-73
2023/08/26 00:48:11;;;;;;;5.40;2.47;;;;;;;;;;461203;29;1043;-73
2023/08/26 00:48:28;;;;;;;5.15;2.33;;;;;;;;;;461045;29;1063;-72
2023/08/26 00:48:43;;;;;;;4.32;2.42;;;;;;;;;;460554;29;1224;-73
2023/08/26 00:49:00;;;;;;;4.10;2.33;;;;;;;;;;460761;29;1081;-72
2023/08/26 00:49:17;;;;;;;2.97;2.30;;;;;;;;;;460456;29;1290;-73
2023/08/26 00:49:32;;;;;;;4.07;2.35;;;;;;;;;;461502;28;1209;-73
2023/08/26 00:49:47;;;;;;;4.30;2.40;;;;;;;;;;461138;28;1265;-72
2023/08/26 00:50:04;;;;;;;4.23;2.37;;;;;;;;;;462520;28;1153;-72
2023/08/26 00:50:19;;;;;;;4.35;2.67;;;;;;;;;;461994;28;1237;-73
2023/08/26 00:50:35;;;;;;;3.97;2.63;;;;;;;;;;460022;29;1169;-73
2023/08/26 00:50:53;;;;;;;3.17;2.22;;;;;;;;;;459969;29;1104;-73
2023/08/26 00:51:09;;;;;;;4.22;2.30;;;;;;;;;;460587;29;1079;-73
2023/08/26 00:51:24;;;;;;;5.15;2.47;;;;;;;;;;460782;29;933;-72
2023/08/26 00:51:39;;;;;;;4.80;2.40;;;;;;;;;;460984;28;941;-73
2023/08/26 00:51:55;;;;;;;4.07;2.50;;;;;;;;;;462054;28;1122;-72
2023/08/26 00:52:11;;;;;;;4.05;2.40;;;;;;;;;;460480;28;1053;-72
2023/08/26 00:52:27;;;;;;;3.50;2.20;;;;;;;;;;461057;28;991;-73
2023/08/26 00:52:43;;;;;;;3.55;2.20;;;;;;;;;;461372;28;1114;-73
2023/08/26 00:52:58;;;;;;;4.30;2.23;;;;;;;;;;460751;29;1064;-73
2023/08/26 00:53:15;;;;;;;5.53;2.47;;;;;;;;;;459936;29;1276;-72
2023/08/26 00:53:31;;;;;;;5.47;2.60;;;;;;;;;;460438;28;2481;-73
2023/08/26 00:53:48;;;;;;;4.70;2.60;;;;;;;;;;460286;28;1251;-73
2023/08/26 00:54:04;;;;;;;4.13;2.65;;;;;;;;;;461172;28;1261;-73
2023/08/26 00:54:20;;;;;;;4.63;2.63;;;;;;;;;;462455;28;1023;-73
2023/08/26 00:54:35;;;;;;;4.50;2.70;;;;;;;;;;461534;28;1060;-73
2023/08/26 00:54:51;;;;;;;4.85;2.70;;;;;;;;;;463579;28;1076;-72
2023/08/26 00:55:07;;;;;;;5.47;2.60;;;;;;;;;;462374;28;1104;-72
2023/08/26 00:55:23;;;;;;;5.25;2.47;;;;;;;;;;459777;28;1275;-72
2023/08/26 00:55:40;;;;;;;4.93;2.40;;;;;;;;;;460637;29;971;-72
2023/08/26 00:55:55;;;;;;;3.95;2.47;;;;;;;;;;460315;29;1170;-72
2023/08/26 00:56:10;;;;;;;4.60;2.45;;;;;;;;;;458528;29;1177;-73
2023/08/26 00:56:26;;;;;;;5.00;2.50;;;;;;;;;;459089;29;1261;-72
2023/08/26 00:56:42;;;;;;;4.10;2.60;;;;;;;;;;460520;29;949;-73
2023/08/26 00:56:57;;;;;;;4.33;2.57;;;;;;;;;;458006;29;1098;-72
2023/08/26 00:57:13;;;;;;;4.53;2.50;;;;;;;;;;457902;29;1114;-73
2023/08/26 00:57:28;;;;;;;5.07;2.57;;;;;;;;;;457144;29;1090;-73
2023/08/26 00:57:43;;;;;;;4.97;2.50;;;;;;;;;;459161;29;1207;-73
2023/08/26 00:57:59;;;;;;;3.60;2.40;;;;;;;;;;459456;29;1120;-72
2023/08/26 00:58:15;;;;;;;3.30;2.37;;;;;;;;;;459964;29;1122;-73
2023/08/26 00:58:32;;;;;;;3.60;2.40;;;;;;;;;;461093;29;1682;-74
2023/08/26 00:58:47;;;;;;;3.25;2.40;;;;;;;;;;459513;29;1603;-73
2023/08/26 00:59:03;;;;;;;3.92;2.50;;;;;;;;;;459374;28;1034;-73
2023/08/26 00:59:18;;;;;;;5.57;2.63;;;;;;;;;;459988;28;1058;-73
2023/08/26 00:59:33;;;;;;;5.70;2.63;;;;;;;;;;461946;28;950;-73
2023/08/26 00:59:49;;;;;;;5.15;2.60;;;;;;;;;;461088;28;991;-73
2023/08/26 01:00:11;;;;;;;4.95;2.70;;;;;;;;;;466922;28;1258;-72
2023/08/26 01:00:27;;;;;;;3.53;2.22;;;;;;;;;;460288;28;943;-72
2023/08/26 01:00:43;;;;;;;2.97;2.10;;;;;;;;;;459574;29;1146;-72
2023/08/26 01:00:58;;;;;;;4.00;2.35;;;;;;;;;;458235;29;1168;-72
2023/08/26 01:01:14;;;;;;;4.57;2.50;;;;;;;;;;457294;29;1034;-73
2023/08/26 01:01:31;;;;;;;4.55;2.60;;;;;;;;;;458237;29;1409;-72
2023/08/26 01:01:47;;;;;;;3.95;2.42;;;;;;;;;;458316;29;922;-72
2023/08/26 01:02:03;;;;;;;4.03;2.30;;;;;;;;;;458493;29;1039;-74
2023/08/26 01:02:18;;;;;;;4.47;2.40;;;;;;;;;;458938;29;1421;-73
2023/08/26 01:02:34;;;;;;;3.53;2.50;;;;;;;;;;460018;28;946;-72
2023/08/26 01:02:49;;;;;;;3.60;2.47;;;;;;;;;;458758;28;1095;-72
2023/08/26 01:03:06;;;;;;;3.55;2.42;;;;;;;;;;461734;28;939;-73
2023/08/26 01:03:21;;;;;;;3.85;2.60;;;;;;;;;;462496;28;1367;-73
2023/08/26 01:03:38;;;;;;;4.30;2.70;;;;;;;;;;461189;28;1074;-73
2023/08/26 01:03:53;;;;;;;5.55;2.47;;;;;;;;;;461413;28;1432;-73
2023/08/26 01:04:08;;;;;;;5.30;2.20;;;;;;;;;;461003;29;1272;-73
2023/08/26 01:04:24;;;;;;;3.90;2.30;;;;;;;;;;459966;29;1304;-73
2023/08/26 01:04:39;;;;;;;3.83;2.40;;;;;;;;;;461447;28;1043;-73
2023/08/26 01:04:55;;;;;;;3.45;2.40;;;;;;;;;;462417;28;1105;-72
2023/08/26 01:05:10;;;;;;;3.50;2.23;;;;;;;;;;462951;28;945;-72
2023/08/26 01:05:26;;;;;;;3.63;2.20;;;;;;;;;;461611;28;1200;-73
2023/08/26 01:05:41;;;;;;;3.20;2.30;;;;;;;;;;462012;28;1091;-72
2023/08/26 01:05:57;;;;;;;3.50;2.20;;;;;;;;;;459855;29;924;-73
2023/08/26 01:06:12;;;;;;;5.38;2.40;;;;;;;;;;459669;28;989;-72
2023/08/26 01:06:27;;;;;;;5.07;2.50;;;;;;;;;;462401;28;1269;-73
2023/08/26 01:06:43;;;;;;;4.20;2.33;;;;;;;;;;462342;28;1073;-73
2023/08/26 01:06:58;;;;;;;4.50;2.40;;;;;;;;;;461421;28;970;-72
2023/08/26 01:07:14;;;;;;;4.47;2.60;;;;;;;;;;461317;28;1142;-73
2023/08/26 01:07:29;;;;;;;4.17;2.53;;;;;;;;;;461255;28;1284;-73
2023/08/26 01:07:45;;;;;;;3.63;2.30;;;;;;;;;;460930;28;1122;-73
2023/08/26 01:08:02;;;;;;;3.53;2.25;;;;;;;;;;462061;28;1579;-73
2023/08/26 01:08:18;;;;;;;6.25;2.60;;;;;;;;;;461344;28;1180;-72
2023/08/26 01:08:33;;;;;;;6.15;2.65;;;;;;;;;;460143;29;1248;-72
2023/08/26 01:08:50;;;;;;;4.90;2.40;;;;;;;;;;458985;29;1166;-73
2023/08/26 01:09:05;;;;;;;4.90;2.33;;;;;;;;;;459329;29;1185;-73
2023/08/26 01:09:21;;;;;;;4.05;2.20;;;;;;;;;;458432;29;1215;-73
2023/08/26 01:09:37;;;;;;;3.60;2.30;;;;;;;;;;460711;28;1264;-73
2023/08/26 01:09:53;;;;;;;4.00;2.40;;;;;;;;;;462689;28;1078;-73
2023/08/26 01:10:09;;;;;;;4.57;2.60;;;;;;;;;;461948;28;1030;-73
2023/08/26 01:10:36;;;;;;;6.82;2.60;;;;;;;;;;462550;28;1341;-73
2023/08/26 01:11:18;;;;;;;6.65;2.50;;;;;;;;;;464472;28;983;-73
2023/08/26 01:11:42;;;;;;;3.55;2.50;;;;;;;;;;464698;28;1683;-73
2023/08/26 01:12:22;;;;;;;5.10;2.70;;;;;;;;;;464567;28;941;-73
2023/08/26 01:13:02;;;;;;;4.70;2.55;;;;;;;;;;461828;28;1370;-73
2023/08/26 01:13:24;;;;;;;6.45;2.65;;;;;;;;;;461022;29;1215;-72
2023/08/26 01:14:06;;;;;;;6.82;2.30;;;;;;;;;;460631;29;1991;-73
2023/08/26 01:14:33;;;;;;;4.43;2.30;;;;;;;;;;458988;29;1024;-73
2023/08/26 01:14:58;;;;;;;4.60;2.38;;;;;;;;;;457822;29;1623;-72
2023/08/26 01:15:15;;;;;;;3.83;2.40;;;;;;;;;;459551;29;2086;-72
2023/08/26 01:15:32;;;;;;;3.95;2.30;;;;;;;;;;458451;29;1381;-72
2023/08/26 01:15:50;;;;;;;4.20;2.45;;;;;;;;;;460060;29;1022;-72
2023/08/26 01:16:08;;;;;;;3.92;2.33;;;;;;;;;;459559;29;1258;-73
2023/08/26 01:16:23;;;;;;;5.55;2.65;;;;;;;;;;460599;28;951;-72
2023/08/26 01:16:42;;;;;;;5.32;2.90;;;;;;;;;;460939;28;1282;-72
2023/08/26 01:16:57;;;;;;;5.43;2.70;;;;;;;;;;460795;29;1083;-73
2023/08/26 01:17:13;;;;;;;5.10;2.50;;;;;;;;;;456997;29;1278;-72
2023/08/26 01:17:29;;;;;;;4.63;2.65;;;;;;;;;;457249;29;1116;-73
2023/08/26 01:17:45;;;;;;;4.57;2.70;;;;;;;;;;457486;29;1131;-73
2023/08/26 01:18:05;;;;;;;5.20;2.50;;;;;;;;;;456084;29;1306;-73
2023/08/26 01:18:22;;;;;;;4.82;2.47;;;;;;;;;;457362;29;1630;-73
2023/08/26 01:18:39;;;;;;;4.60;2.60;;;;;;;;;;457612;29;1267;-73
2023/08/26 01:18:55;;;;;;;3.95;2.53;;;;;;;;;;456362;29;1192;-72
2023/08/26 01:19:39;;;;;;;5.80;2.50;;;;;;;;;;457426;29;1023;-72
2023/08/26 01:19:58;;;;;;;4.38;2.53;;;;;;;;;;462611;28;1211;-72
2023/08/26 01:20:15;;;;;;;4.70;2.63;;;;;;;;;;463574;28;1019;-73
2023/08/26 01:20:32;;;;;;;4.03;2.50;;;;;;;;;;464333;28;1197;-73
2023/08/26 01:20:49;;;;;;;4.65;2.70;;;;;;;;;;462017;28;1588;-72
2023/08/26 01:21:07;;;;;;;5.43;2.80;;;;;;;;;;460696;28;1075;-72
2023/08/26 01:21:31;;;;;;;5.40;2.70;;;;;;;;;;461298;29;1165;-73
2023/08/26 01:21:50;;;;;;;5.63;2.70;;;;;;;;;;460926;29;1074;-72
2023/08/26 01:22:07;;;;;;;6.03;2.80;;;;;;;;;;460620;29;1485;-72
2023/08/26 01:22:24;;;;;;;5.45;2.70;;;;;;;;;;461366;28;1086;-73
2023/08/26 01:22:42;;;;;;;5.15;2.83;;;;;;;;;;460020;29;1231;-73
2023/08/26 01:22:59;;;;;;;5.50;2.92;;;;;;;;;;460113;28;1283;-72
2023/08/26 01:23:34;;;;;;;4.97;2.85;;;;;;;;;;461915;28;1326;-73
2023/08/26 01:23:49;;;;;;;6.20;2.75;;;;;;;;;;460402;29;1099;-73
2023/08/26 01:24:05;;;;;;;5.33;2.90;;;;;;;;;;456914;29;1133;-73
2023/08/26 01:24:21;;;;;;;4.80;2.83;;;;;;;;;;456712;29;1268;-72
2023/08/26 01:24:39;;;;;;;5.15;2.70;;;;;;;;;;457615;29;1377;-73
2023/08/26 01:24:55;;;;;;;4.70;2.85;;;;;;;;;;456334;29;1121;-72
2023/08/26 01:25:10;;;;;;;5.35;2.90;;;;;;;;;;455768;29;1073;-72
2023/08/26 01:25:26;;;;;;;5.03;2.83;;;;;;;;;;457198;29;1114;-73
2023/08/26 01:25:41;;;;;;;5.50;2.90;;;;;;;;;;461189;28;1181;-73
2023/08/26 01:25:56;;;;;;;5.83;2.87;;;;;;;;;;459808;29;1196;-72
2023/08/26 01:26:12;;;;;;;5.17;2.80;;;;;;;;;;461198;29;931;-72
2023/08/26 01:26:27;;;;;;;5.90;2.70;;;;;;;;;;460141;29;1002;-72
2023/08/26 01:26:42;;;;;;;6.40;2.80;;;;;;;;;;460886;28;1201;-72
2023/08/26 01:27:01;;;;;;;5.73;3.00;;;;;;;;;;462648;28;986;-72
2023/08/26 01:27:16;;;;;;;5.32;2.70;;;;;;;;;;462265;28;895;-72
2023/08/26 01:27:31;;;;;;;4.43;2.50;;;;;;;;;;460420;28;1133;-73
2023/08/26 01:27:47;;;;;;;4.18;2.55;;;;;;;;;;459821;29;1159;-73
2023/08/26 01:28:02;;;;;;;4.80;2.80;;;;;;;;;;460179;29;1153;-73
2023/08/26 01:28:17;;;;;;;5.27;2.90;;;;;;;;;;459985;29;1329;-73
2023/08/26 01:28:34;;;;;;;4.70;2.75;;;;;;;;;;460411;29;892;-72
2023/08/26 01:28:49;;;;;;;4.07;2.60;;;;;;;;;;460057;28;1264;-73
2023/08/26 01:29:04;;;;;;;5.17;2.60;;;;;;;;;;460337;29;1219;-72
2023/08/26 01:29:21;;;;;;;6.83;2.70;;;;;;;;;;461629;28;1190;-72
2023/08/26 01:29:36;;;;;;;7.22;2.95;;;;;;;;;;460904;28;1017;-73
2023/08/26 01:29:51;;;;;;;5.67;3.00;;;;;;;;;;459843;29;1121;-72
2023/08/26 01:30:08;;;;;;;5.47;2.80;;;;;;;;;;459034;29;1113;-73
2023/08/26 01:30:27;;;;;;;5.63;2.80;;;;;;;;;;458947;29;909;-73
2023/08/26 01:30:43;;;;;;;4.45;2.70;;;;;;;;;;459780;29;1043;-72
2023/08/26 01:31:12;;;;;;;5.60;2.63;;;;;;;;;;460560;29;1191;-73
2023/08/26 01:31:30;;;;;;;5.88;2.70;;;;;;;;;;460894;28;938;-72
2023/08/26 01:31:52;;;;;;;5.68;2.75;;;;;;;;;;461852;28;1202;-73
2023/08/26 01:32:25;;;;;;;5.75;3.00;;;;;;;;;;459994;29;1264;-73
2023/08/26 01:32:51;;;;;;;4.30;2.60;;;;;;;;;;460317;29;1298;-72
2023/08/26 01:33:22;;;;;;;4.72;2.95;;;;;;;;;;460389;29;1084;-72
2023/08/26 01:33:46;;;;;;;5.03;3.03;;;;;;;;;;460778;28;1986;-73
2023/08/26 01:34:19;;;;;;;6.07;3.13;;;;;;;;;;461552;28;1094;-73
2023/08/26 01:34:38;;;;;;;6.22;3.05;;;;;;;;;;461061;28;1234;-73
2023/08/26 01:34:56;;;;;;;6.35;2.92;;;;;;;;;;460216;29;979;-73
2023/08/26 01:35:17;;;;;;;4.97;2.80;;;;;;;;;;460446;29;1266;-72
2023/08/26 01:35:37;;;;;;;5.43;2.70;;;;;;;;;;458955;29;1328;-72
2023/08/26 01:35:58;;;;;;;6.03;2.70;;;;;;;;;;459528;29;1089;-73
2023/08/26 01:36:22;;;;;;;5.63;2.65;;;;;;;;;;460477;29;1057;-73
2023/08/26 01:36:42;;;;;;;4.43;2.80;;;;;;;;;;462128;28;1133;-72
2023/08/26 01:36:59;;;;;;;4.55;2.78;;;;;;;;;;460725;29;1261;-72
2023/08/26 01:37:17;;;;;;;4.28;2.60;;;;;;;;;;461480;29;1263;-73
2023/08/26 01:37:34;;;;;;;4.63;2.75;;;;;;;;;;459832;29;1209;-73
2023/08/26 01:37:50;;;;;;;4.60;2.70;;;;;;;;;;459169;29;1306;-73
2023/08/26 01:38:08;;;;;;;5.70;2.80;;;;;;;;;;459838;29;950;-73
2023/08/26 01:38:23;;;;;;;5.30;2.83;;;;;;;;;;459772;29;1499;-73
2023/08/26 01:38:41;;;;;;;5.55;2.85;;;;;;;;;;459326;29;1034;-72
2023/08/26 01:38:57;;;;;;;5.65;3.03;;;;;;;;;;461447;28;1027;-73
2023/08/26 01:39:14;;;;;;;5.18;2.95;;;;;;;;;;459164;29;1166;-72
2023/08/26 01:39:30;;;;;;;5.30;2.83;;;;;;;;;;460692;28;1076;-72
2023/08/26 01:39:48;;;;;;;5.18;2.90;;;;;;;;;;459175;29;1179;-73
2023/08/26 01:40:05;;;;;;;5.45;2.97;;;;;;;;;;460454;29;1118;-73
2023/08/26 01:40:22;;;;;;;5.28;3.10;;;;;;;;;;460279;29;978;-72
2023/08/26 01:40:40;;;;;;;4.85;3.17;;;;;;;;;;457916;29;1160;-73
2023/08/26 01:40:56;;;;;;;5.75;3.20;;;;;;;;;;458493;29;1521;-73
2023/08/26 01:41:17;;;;;;;5.82;3.42;;;;;;;;;;460012;29;1195;-72
2023/08/26 01:41:33;;;;;;;5.97;3.13;;;;;;;;;;460773;29;1638;-72
2023/08/26 01:41:51;;;;;;;6.30;2.92;;;;;;;;;;460774;29;1016;-73
2023/08/26 01:42:07;;;;;;;5.88;2.95;;;;;;;;;;460576;29;1038;-72
2023/08/26 01:42:24;;;;;;;5.35;2.85;;;;;;;;;;459370;29;1076;-73
2023/08/26 01:42:42;;;;;;;4.25;2.67;;;;;;;;;;459736;29;1093;-73
2023/08/26 01:42:58;;;;;;;4.47;2.60;;;;;;;;;;460706;29;970;-72
2023/08/26 01:43:14;;;;;;;4.60;2.70;;;;;;;;;;459385;29;1212;-73
2023/08/26 01:43:30;;;;;;;4.13;2.80;;;;;;;;;;458861;29;974;-73
2023/08/26 01:43:50;;;;;;;4.68;2.83;;;;;;;;;;460810;29;928;-72
2023/08/26 01:44:06;;;;;;;5.95;2.92;;;;;;;;;;458295;29;1297;-73